Tuesday, July 17, 2018, 1:49 AM EDT
Back to Local

KBTP, Butler, Butler County Airport/k W Scholter Field

Location: Renfrew, PA, United States Lat: 40.783
Local Time: 1:49 AM EDT ( 5:49 GMT) Lon: -79.95
Time Zone: US/Eastern Elev: 1246 ft

Show me the last for .
Show Decoded

2018-07-17 01:38 METAR KBTP 170538Z AUTO 22003KT 10SM SCT018 BKN029 BKN040 23/21 A2992 RMK AO2 =
2018-07-17 00:56 METAR KBTP 170456Z AUTO 19003KT 10SM FEW020 SCT085 SCT100 23/21 A2993 RMK AO2
                 LTG DSNT SE SLP129 T02330211 403280194 =
2018-07-16 23:56 METAR KBTP 170356Z AUTO 21003KT 10SM BKN090 23/21 A2994 RMK AO2 RAB38E49 SLP132
                 P0000 T02330211 =
2018-07-16 22:56 METAR KBTP 170256Z AUTO 20006KT 10SM BKN095 24/21 A2994 RMK AO2 LTG DSNT N AND
                 NE RAB19E47 SLP132 P0000 60000 T02390211 53007 =
2018-07-16 21:56 METAR KBTP 170156Z AUTO 17006KT 10SM SCT040 26/20 A2991 RMK AO2 LTG DSNT E AND
                 SE SLP123 T02560200 =
2018-07-16 20:56 METAR KBTP 170056Z AUTO 20003KT 10SM FEW110 27/21 A2993 RMK AO2 LTG DSNT S AND W
                 SLP130 T02670206 =
2018-07-16 19:56 METAR KBTP 162356Z AUTO 23005KT 10SM CLR 28/21 A2992 RMK AO2 SLP125 T02830211
                 10328 20278 56001 =
2018-07-16 18:56 METAR KBTP 162256Z AUTO 22006KT 10SM CLR 28/21 A2992 RMK AO2 LTG DSNT N SLP126
                 T02830211 =
2018-07-16 17:56 METAR KBTP 162156Z AUTO 22012G15KT 10SM FEW048 31/21 A2991 RMK AO2 LTG DSNT W
                 AND NW SLP123 T03110206 =
2018-07-16 15:56 METAR KBTP 161956Z AUTO 19005KT 10SM FEW046 31/21 A2993 RMK AO2 SLP130 T03110211
                 =
2018-07-16 14:56 METAR KBTP 161856Z AUTO 19008KT 10SM FEW046 32/21 A2996 RMK AO2 SLP139 T03220206
                 =
2018-07-16 13:56 METAR KBTP 161756Z AUTO 16008KT 10SM BKN048 BKN060 31/20 A2998 RMK AO2 SLP147
                 T03110200 10317 20217 58014 =
2018-07-16 12:56 METAR KBTP 161656Z AUTO 19011KT 10SM SCT037 32/21 A3001 RMK AO2 SLP156 T03170206
                 =
2018-07-16 11:56 METAR KBTP 161556Z AUTO VRB06KT 10SM CLR 30/22 A3002 RMK AO2 SLP159 T03000222 =
2018-07-16 10:56 METAR KBTP 161456Z AUTO 23006KT 10SM CLR 28/22 A3003 RMK AO2 SLP161 T02830222
                 58006 =
2018-07-16 09:56 METAR KBTP 161356Z AUTO VRB03KT 10SM CLR 26/22 A3003 RMK AO2 SLP165 T02610222 =
2018-07-16 08:56 METAR KBTP 161256Z AUTO 24004KT 10SM SCT065 24/21 A3005 RMK AO2 SLP172 T02440211
                 =
2018-07-16 07:56 METAR KBTP 161156Z AUTO 18003KT 8SM CLR 22/21 A3004 RMK AO2 SLP170 T02170206
                 10217 20194 50008 =
2018-07-16 06:56 METAR KBTP 161056Z AUTO 18003KT 5SM BR CLR 21/20 A3005 RMK AO2 SLP172 T02060200
                 =
2018-07-16 05:56 METAR KBTP 160956Z AUTO 00000KT 6SM BR BKN060 20/19 A3003 RMK AO2 SLP164
                 T02000194 =
2018-07-16 04:56 METAR KBTP 160856Z AUTO 00000KT 9SM CLR 20/19 A3002 RMK AO2 SLP161 T02000194
                 58001 =
2018-07-16 03:56 METAR KBTP 160756Z AUTO 00000KT 10SM CLR 21/19 A3003 RMK AO2 SLP164 T02060194 =
2018-07-16 02:56 METAR KBTP 160656Z AUTO 00000KT 10SM CLR 21/19 A3002 RMK AO2 SLP163 T02060194 =
2018-07-16 01:56 METAR KBTP 160556Z AUTO 00000KT 10SM CLR 21/19 A3002 RMK AO2 SLP162 T02110194
                 10256 20206 58004 =

Support USWX by starting your Amazon purchase here.